Historique des stations

Station météo de Beddes

Altitude de la station : 224 m







Données météorologiques pour le 20/10/2021
Date
Heure
Températures Humidité Point de rosée Vitesse
du vent
Direction Rafales Windchill Pression Pluviométrie
Cumul
Date
Heure
Températures Humidité Point de rosée Vitesse
du vent
Direction Rafales Windchill Pression Pluviométrie
Cumul
20/10/2021 23:5917.6 °C77 %13.3 °C31 km/hN53 km/h14.4 1008 hPa8 mm
20/10/2021 23:4417.8 °C77 %13.9 °C24 km/hN53 km/h15.0 1008 hPa8 mm
20/10/2021 23:2917.8 °C78 %13.9 °C29 km/hN53 km/h14.4 1009 hPa8 mm
20/10/2021 23:1417.8 °C78 %13.9 °C23 km/hN51 km/h15.6 1008 hPa8 mm
20/10/2021 22:5917.7 °C80 %14.4 °C10 km/hN43 km/h17.8 1008 hPa8 mm
20/10/2021 22:4417.7 °C82 %14.4 °C23 km/hN43 km/h15.6 1008 hPa8 mm
20/10/2021 22:2917.8 °C83 %15.0 °C13 km/hN43 km/h17.2 1008 hPa8 mm
20/10/2021 22:1417.7 °C85 %15.0 °C18 km/hN43 km/h16.1 1008 hPa8 mm
20/10/2021 21:5917.6 °C87 %15.6 °C23 km/hN43 km/h15.6 1009 hPa8 mm
20/10/2021 21:4417.4 °C89 %15.6 °C13 km/hN43 km/h16.7 1009 hPa8 mm
20/10/2021 21:2917.4 °C91 %16.1 °C19 km/hN43 km/h15.0 1009 hPa7.8 mm
20/10/2021 21:1417.2 °C93 %16.1 °C23 km/hN43 km/h15.0 1009 hPa7.8 mm
20/10/2021 20:5917.1 °C94 %16.1 °C18 km/hN43 km/h15.6 1010 hPa7.8 mm
20/10/2021 20:4416.9 °C94 %16.1 °C26 km/hN43 km/h14.4 1010 hPa7.8 mm
20/10/2021 20:2916.6 °C94 %15.6 °C14 km/hN43 km/h15.6 1010 hPa7.8 mm
20/10/2021 20:1416.6 °C94 %15.6 °C13 km/hN43 km/h16.1 1010 hPa7.8 mm
20/10/2021 19:5916.6 °C94 %15.6 °C6 km/hN43 km/h16.7 1010 hPa7.8 mm
20/10/2021 19:4416.6 °C94 %15.6 °C8 km/hN43 km/h16.7 1010 hPa7.8 mm
20/10/2021 19:2916.6 °C94 %15.6 °C10 km/hN43 km/h16.7 1011 hPa7.2 mm
20/10/2021 19:1116.7 °C93 %15.6 °C10 km/hN43 km/h16.7 1011 hPa6.4 mm
20/10/2021 18:5916.8 °C93 %15.6 °C6 km/hN43 km/h16.7 1011 hPa6.2 mm
20/10/2021 18:4416.9 °C92 %15.6 °C8 km/hN43 km/h17.2 1012 hPa4.2 mm
20/10/2021 18:2917.1 °C91 %15.6 °C5 km/hN43 km/h17.2 1012 hPa3.4 mm
20/10/2021 18:1417.1 °C91 %15.6 °C10 km/hN43 km/h17.2 1012 hPa3.4 mm
20/10/2021 18:0017.2 °C91 %15.6 °C18 km/hN43 km/h15.6 1012 hPa3.4 mm
20/10/2021 17:4517.3 °C89 %15.6 °C21 km/hN43 km/h15.0 1012 hPa3 mm
20/10/2021 17:3017.4 °C89 %15.6 °C19 km/hN43 km/h15.0 1013 hPa3 mm
20/10/2021 17:1417.4 °C89 %15.6 °C16 km/hN43 km/h15.6 1013 hPa3 mm
20/10/2021 16:5917.4 °C89 %15.6 °C23 km/hN43 km/h15.0 1013 hPa3 mm
20/10/2021 16:4417.6 °C88 %15.6 °C14 km/hN43 km/h16.7 1013 hPa3 mm
20/10/2021 16:2917.5 °C88 %15.6 °C14 km/hN43 km/h16.7 1014 hPa3 mm
20/10/2021 16:1417.4 °C88 %15.6 °C13 km/hN43 km/h16.7 1013 hPa3 mm
20/10/2021 15:5917.3 °C88 %15.6 °C13 km/hN43 km/h16.7 1014 hPa3 mm
20/10/2021 15:4417.4 °C88 %15.6 °C8 km/hN43 km/h17.2 1014 hPa3 mm
20/10/2021 15:2917.3 °C88 %15.6 °C13 km/hN43 km/h16.7 1014 hPa1.6 mm
20/10/2021 15:1417.2 °C88 %15.0 °C10 km/hN43 km/h17.2 1014 hPa1.4 mm
20/10/2021 14:5917.3 °C88 %15.6 °C16 km/hN43 km/h15.6 1015 hPa1.2 mm
20/10/2021 14:4417.4 °C87 %15.0 °C13 km/hN43 km/h16.7 1015 hPa0.8 mm
20/10/2021 14:2918.1 °C84 %15.6 °C18 km/hN43 km/h16.7 1015 hPa0.4 mm
20/10/2021 14:1418.8 °C80 %15.6 °C21 km/hN43 km/h16.7 1015 hPa0.2 mm
20/10/2021 13:5919.6 °C78 %15.6 °C19 km/hN43 km/h17.8 1015 hPa-
20/10/2021 13:4420.6 °C73 %15.6 °C8 km/hN43 km/h20.6 1016 hPa-
20/10/2021 13:2920.7 °C73 %15.6 °C19 km/hN43 km/h18.9 1016 hPa-
20/10/2021 13:1420.3 °C74 %15.6 °C21 km/hN43 km/h18.9 1016 hPa-
20/10/2021 12:5920.2 °C76 %15.6 °C13 km/hN43 km/h19.4 1016 hPa-
20/10/2021 12:4420.8 °C72 %15.6 °C18 km/hN39 km/h20.0 1016 hPa-
20/10/2021 12:2921.3 °C70 %15.6 °C14 km/hSO39 km/h20.0 1016 hPa-
20/10/2021 12:1420.9 °C71 %15.6 °C24 km/hN39 km/h18.9 1016 hPa-
20/10/2021 11:5921.3 °C69 %15.6 °C18 km/hOSO39 km/h20.0 1016 hPa-
20/10/2021 11:4420.9 °C70 %15.0 °C18 km/hN39 km/h20.0 1016 hPa-
20/10/2021 11:2920.9 °C70 %15.0 °C21 km/hN39 km/h19.4 1016 hPa-
20/10/2021 11:1419.7 °C72 %14.4 °C19 km/hN34 km/h18.3 1017 hPa-
20/10/2021 10:5919.4 °C73 %14.4 °C19 km/hN34 km/h17.8 1017 hPa-
20/10/2021 10:4419.5 °C72 %14.4 °C27 km/hN34 km/h16.7 1017 hPa-
20/10/2021 10:2919.7 °C71 %14.4 °C6 km/hN34 km/h20.0 1017 hPa-
20/10/2021 10:1419.9 °C70 %14.4 °C18 km/hN34 km/h18.3 1017 hPa-
20/10/2021 09:5919.9 °C69 %13.9 °C23 km/hN34 km/h17.8 1017 hPa-
20/10/2021 09:4419.8 °C68 %13.9 °C19 km/hN34 km/h18.3 1017 hPa-
20/10/2021 09:2919.6 °C68 %13.3 °C23 km/hN34 km/h17.2 1017 hPa-
20/10/2021 09:1519.3 °C68 %13.3 °C14 km/hN34 km/h18.3 1016 hPa-
20/10/2021 09:0019.3 °C68 %13.3 °C6 km/hN34 km/h19.4 1016 hPa-
20/10/2021 08:4519.1 °C69 %13.3 °C13 km/hN34 km/h18.3 1016 hPa-
20/10/2021 08:3017.9 °C72 %12.8 °C10 km/hN34 km/h17.8 1016 hPa-
20/10/2021 08:14-74 %-5 km/hN34 km/h-1015 hPa-
20/10/2021 07:5917.1 °C74 %12.2 °C13 km/hN34 km/h16.7 1016 hPa-
20/10/2021 07:4416.8 °C74 %12.2 °C6 km/hN34 km/h16.7 1016 hPa-
20/10/2021 07:2917.1 °C73 %12.2 °C3 km/hN34 km/h17.2 1016 hPa-
20/10/2021 07:1417.1 °C72 %12.2 °C2 km/hN34 km/h17.2 1016 hPa-
20/10/2021 06:5917.2 °C72 %12.2 °C5 km/hN34 km/h17.2 1016 hPa-
20/10/2021 06:4417.5 °C71 %12.2 °C3 km/hN34 km/h17.8 1016 hPa-
20/10/2021 06:2917.5 °C71 %12.2 °C13 km/hN34 km/h17.2 1016 hPa-
20/10/2021 06:1417.6 °C70 %12.2 °C8 km/hN34 km/h17.8 1016 hPa-
20/10/2021 05:5917.9 °C69 %12.2 °C5 km/hN34 km/h17.8 1016 hPa-
20/10/2021 05:4417.9 °C68 %11.7 °C6 km/hN34 km/h17.8 1017 hPa-
20/10/2021 05:2918.0 °C68 %12.2 °C16 km/hN34 km/h16.1 1017 hPa-
20/10/2021 05:1418.0 °C67 %11.7 °C18 km/hN34 km/h16.1 1017 hPa-
20/10/2021 04:5917.9 °C67 %11.7 °C8 km/hN34 km/h17.8 1017 hPa-
20/10/2021 04:4417.7 °C67 %11.7 °C5 km/hN34 km/h17.8 1017 hPa-
20/10/2021 04:2917.2 °C68 %11.1 °C14 km/hN34 km/h16.1 1017 hPa-
20/10/2021 04:1417.1 °C68 %11.1 °C5 km/hN34 km/h17.2 1018 hPa-
20/10/2021 03:5917.4 °C67 %11.1 °C5 km/hN34 km/h17.2 1018 hPa-
20/10/2021 03:4417.4 °C68 %11.7 °C13 km/hN34 km/h16.7 1018 hPa-
20/10/2021 03:2917.0 °C69 %11.1 °C8 km/hN34 km/h17.2 1018 hPa-
20/10/2021 03:1417.1 °C68 %11.1 °C19 km/hN34 km/h15.0 1018 hPa-
20/10/2021 02:5917.2 °C68 %11.1 °C18 km/hN34 km/h15.6 1018 hPa-
20/10/2021 02:4417.2 °C69 %11.7 °C8 km/hN34 km/h17.2 1018 hPa-
20/10/2021 02:2917.2 °C69 %11.7 °C6 km/hN34 km/h17.2 1019 hPa-
20/10/2021 02:1417.1 °C69 %11.1 °C10 km/hN34 km/h17.2 1019 hPa-
20/10/2021 01:5917.1 °C69 %11.1 °C13 km/hN34 km/h16.7 1019 hPa-
20/10/2021 01:4417.3 °C68 %11.1 °C10 km/hN34 km/h17.2 1019 hPa-
20/10/2021 01:2917.5 °C68 %11.7 °C6 km/hN34 km/h17.8 1019 hPa-
20/10/2021 01:1417.7 °C67 %11.7 °C21 km/hN34 km/h15.6 1020 hPa-
20/10/2021 00:5917.6 °C67 %11.1 °C13 km/hN34 km/h17.2 1020 hPa-
20/10/2021 00:4417.3 °C68 %11.1 °C6 km/hN26 km/h17.2 1020 hPa-
20/10/2021 00:3017.2 °C69 %11.7 °C6 km/hN23 km/h17.2 1020 hPa-
20/10/2021 00:15-44 %-5 km/hN23 km/h-1020 hPa-


Minima :

Température : 16.6 °C
Humidité : 44 %
Point de rosée : 11.1 °C
Vent moyen : 2 km/h
Windchill : 14.4
Pression atm. : 1008 hPa
Maxima :

Température : 21.3 °C
Humidité : 94 %
Point de rosée : 16.1 °C
Vent moyen : 31 km/h
Windchill : 20.6
Pression atm. : 1020 hPa
Rafales max : 53 km/h
Cumul de pluie sur 24H : 8 mm

Beddes est une commune du département Cher (18).
La station météorologique du réseau de l'association la plus proche de Beddes est celle de Culan



Icône Facebook Association Météo Centre Icône Twitter Association Météo Centre Icône Chaîne Youtube Association Météo Centre Icône contact Association Météo Centre Icône Insta Association Météo Centre